Time;durP1;ratioP1;P1;durP2;ratioP2;P2;SDS_P1;SDS_P2;PMS_P1;PMS_P2;Temp;Humidity;BMP_temperature;BMP_pressure;BME280_temperature;BME280_humidity;BME280_pressure;Samples;Min_cycle;Max_cycle;Signal;HPM_P1;HPM_P2
2022/09/23 00:00:27;;;;;;;7.70;6.90;;;11.40;99.90;;;;;;5011283;28;20214;-78
2022/09/23 00:02:54;;;;;;;8.30;7.53;;;11.40;99.90;;;;;;5012348;28;20277;-77
2022/09/23 00:05:23;;;;;;;10.53;7.83;;;11.40;99.90;;;;;;5016511;28;20223;-78
2022/09/23 00:07:49;;;;;;;7.90;6.63;;;11.40;99.90;;;;;;5017413;28;20617;-78
2022/09/23 00:10:16;;;;;;;8.83;7.67;;;11.50;99.90;;;;;;5018315;28;20246;-78
2022/09/23 00:12:43;;;;;;;7.77;6.97;;;11.40;99.90;;;;;;5018997;28;20246;-78
2022/09/23 00:15:11;;;;;;;9.60;6.97;;;11.40;99.90;;;;;;5017732;28;20285;-77
2022/09/23 00:17:39;;;;;;;8.07;6.83;;;11.40;99.90;;;;;;5018573;28;20202;-78
2022/09/23 00:20:08;;;;;;;7.10;6.40;;;11.40;99.90;;;;;;5018459;28;20209;-78
2022/09/23 00:22:37;;;;;;;8.83;7.07;;;11.40;99.90;;;;;;5017986;28;20210;-76
2022/09/23 00:25:04;;;;;;;8.37;7.40;;;11.30;99.90;;;;;;5031193;28;20797;-76
2022/09/23 00:27:32;;;;;;;7.90;7.10;;;11.30;99.90;;;;;;5032451;28;20861;-77
2022/09/23 00:29:58;;;;;;;10.23;7.17;;;11.30;99.90;;;;;;5018316;28;20202;-76
2022/09/23 00:32:25;;;;;;;10.80;7.40;;;11.30;99.90;;;;;;5030882;28;20297;-77
2022/09/23 00:34:52;;;;;;;8.50;7.60;;;11.20;99.90;;;;;;5037446;28;20497;-78
2022/09/23 00:37:19;;;;;;;7.73;6.93;;;11.20;99.90;;;;;;5037706;28;20313;-77
2022/09/23 00:39:48;;;;;;;8.33;7.00;;;11.10;99.90;;;;;;5038244;28;20206;-78
2022/09/23 00:42:17;;;;;;;9.07;7.73;;;11.10;99.90;;;;;;5024065;28;20213;-77
2022/09/23 00:44:51;;;;;;;9.00;7.20;;;11.10;99.90;;;;;;5023046;28;20235;-78
2022/09/23 00:47:23;;;;;;;9.27;7.53;;;11.00;99.90;;;;;;5035525;28;20202;-78
2022/09/23 00:50:00;;;;;;;8.77;7.13;;;11.00;99.90;;;;;;5023221;28;20249;-77
2022/09/23 00:52:29;;;;;;;7.70;6.43;;;11.00;99.90;;;;;;5019223;28;20241;-77
2022/09/23 00:55:00;;;;;;;9.23;7.77;;;11.00;99.90;;;;;;5037952;28;20256;-78
2022/09/23 00:57:29;;;;;;;8.83;7.93;;;10.90;99.90;;;;;;5036199;28;20195;-78
2022/09/23 00:59:56;;;;;;;7.97;7.17;;;10.90;99.90;;;;;;5018181;28;20195;-78
2022/09/23 01:02:23;;;;;;;8.40;7.50;;;10.90;99.90;;;;;;5017843;28;20285;-78
2022/09/23 01:04:50;;;;;;;8.37;6.67;;;10.90;99.90;;;;;;5017223;28;20544;-78
2022/09/23 01:07:17;;;;;;;8.60;7.70;;;10.80;99.90;;;;;;5017850;28;20211;-78
2022/09/23 01:09:45;;;;;;;8.43;7.27;;;10.80;99.90;;;;;;5017843;28;20227;-78
2022/09/23 01:12:26;;;;;;;7.47;6.63;;;10.80;99.90;;;;;;5017820;28;20213;-78
2022/09/23 01:15:02;;;;;;;9.13;8.13;;;10.80;99.90;;;;;;5017363;28;20549;-78
2022/09/23 01:17:39;;;;;;;9.00;7.70;;;10.80;99.90;;;;;;5013711;28;20203;-78
2022/09/23 01:20:36;;;;;;;7.90;6.80;;;10.70;99.90;;;;;;5014885;28;20203;-78
2022/09/23 01:23:27;;;;;;;8.03;7.10;;;10.70;99.90;;;;;;4997317;28;20223;-78
2022/09/23 01:26:09;;;;;;;8.60;7.80;;;10.70;99.90;;;;;;5014301;28;20211;-78
2022/09/23 01:29:10;;;;;;;9.13;7.43;;;10.70;99.90;;;;;;5014576;28;20233;-78
2022/09/23 01:31:44;;;;;;;8.93;8.03;;;10.70;99.90;;;;;;5013810;28;20195;-78
2022/09/23 01:34:14;;;;;;;12.30;8.97;;;10.70;99.90;;;;;;5014725;28;20195;-77
2022/09/23 01:36:47;;;;;;;8.27;7.47;;;10.70;99.90;;;;;;5014454;28;20255;-78
2022/09/23 01:39:20;;;;;;;9.30;8.27;;;10.70;99.90;;;;;;5014290;28;20289;-78
2022/09/23 01:41:57;;;;;;;11.23;9.10;;;10.70;99.90;;;;;;5014322;28;20207;-77
2022/09/23 01:44:33;;;;;;;10.50;8.13;;;10.60;99.90;;;;;;5019423;28;20214;-76
2022/09/23 01:47:09;;;;;;;11.93;9.83;;;10.60;99.90;;;;;;5034165;28;20244;-77
2022/09/23 01:49:43;;;;;;;10.27;8.40;;;10.60;99.90;;;;;;5034683;28;20492;-77
2022/09/23 01:52:15;;;;;;;10.23;8.20;;;10.60;99.90;;;;;;5022229;28;20203;-76
2022/09/23 01:54:49;;;;;;;9.77;7.67;;;10.60;99.90;;;;;;5014161;28;20225;-77
2022/09/23 01:57:19;;;;;;;11.07;8.07;;;10.60;99.90;;;;;;5014683;28;20191;-77
2022/09/23 01:59:50;;;;;;;11.30;9.60;;;10.60;99.90;;;;;;5013897;28;20202;-77
2022/09/23 02:02:24;;;;;;;12.10;9.07;;;10.60;99.90;;;;;;5013839;28;20795;-76
2022/09/23 02:04:57;;;;;;;9.50;8.40;;;10.60;99.90;;;;;;5013931;28;20322;-76
2022/09/23 02:07:29;;;;;;;12.00;9.23;;;10.50;99.90;;;;;;5031947;28;20876;-78
2022/09/23 02:10:01;;;;;;;10.87;7.93;;;10.50;99.90;;;;;;5033926;28;20322;-76
2022/09/23 02:12:30;;;;;;;9.53;8.53;;;10.50;99.90;;;;;;5015771;28;20200;-77
2022/09/23 02:15:04;;;;;;;10.00;7.77;;;10.50;99.90;;;;;;5013519;28;20640;-77
2022/09/23 02:17:38;;;;;;;10.17;8.60;;;10.40;99.90;;;;;;5013917;28;20229;-76
2022/09/23 02:20:07;;;;;;;9.33;8.30;;;10.40;99.90;;;;;;5013738;28;20265;-77
2022/09/23 02:22:41;;;;;;;11.27;9.40;;;10.40;99.90;;;;;;5013514;28;20204;-77
2022/09/23 02:25:11;;;;;;;10.50;8.27;;;10.40;99.90;;;;;;5013696;28;20284;-77
2022/09/23 02:27:46;;;;;;;13.33;10.20;;;10.40;99.90;;;;;;5011984;28;20200;-78
2022/09/23 02:30:15;;;;;;;12.67;9.53;;;10.30;99.90;;;;;;5013667;28;20210;-78
2022/09/23 02:32:51;;;;;;;11.83;9.60;;;10.30;99.90;;;;;;5013693;28;20204;-78
2022/09/23 02:35:24;;;;;;;12.93;10.23;;;10.40;99.90;;;;;;5012469;28;20203;-78
2022/09/23 02:38:00;;;;;;;11.87;10.27;;;10.40;99.90;;;;;;5013256;28;20204;-77
2022/09/23 02:40:36;;;;;;;11.40;10.20;;;10.40;99.90;;;;;;5013884;28;20602;-77
2022/09/23 02:43:10;;;;;;;9.80;8.80;;;10.40;99.90;;;;;;5012592;28;20587;-77
2022/09/23 02:45:37;;;;;;;10.63;9.07;;;10.40;99.90;;;;;;5013722;28;20254;-77
2022/09/23 02:48:10;;;;;;;9.77;8.17;;;10.40;99.90;;;;;;5013477;28;20203;-77
2022/09/23 02:50:38;;;;;;;10.10;8.60;;;10.40;99.90;;;;;;5012889;28;20199;-77
2022/09/23 02:53:05;;;;;;;9.17;7.60;;;10.40;99.90;;;;;;5013464;28;20291;-77
2022/09/23 02:55:32;;;;;;;9.97;8.83;;;10.30;99.90;;;;;;5012977;28;20246;-77
2022/09/23 02:58:02;;;;;;;10.00;9.00;;;10.40;99.90;;;;;;5012847;28;20586;-77
2022/09/23 03:00:44;;;;;;;9.17;8.27;;;10.40;99.90;;;;;;5013086;28;20429;-78
2022/09/23 03:03:28;;;;;;;8.90;8.03;;;10.30;99.90;;;;;;5012373;28;20496;-77
2022/09/23 03:05:59;;;;;;;8.90;7.97;;;10.40;99.90;;;;;;5013170;28;20199;-77
2022/09/23 03:08:41;;;;;;;10.17;8.33;;;10.30;99.90;;;;;;5012091;28;20606;-77
2022/09/23 03:11:12;;;;;;;10.20;8.00;;;10.30;99.90;;;;;;5012070;28;20302;-78
2022/09/23 03:13:52;;;;;;;9.83;8.83;;;10.30;99.90;;;;;;5012685;28;20230;-77
2022/09/23 03:16:29;;;;;;;10.50;8.20;;;10.30;99.90;;;;;;5024503;28;20201;-77
2022/09/23 03:19:02;;;;;;;11.30;9.53;;;10.30;99.90;;;;;;5032688;28;20195;-77
2022/09/23 03:21:35;;;;;;;11.03;9.43;;;10.30;99.90;;;;;;5032693;28;20199;-78
2022/09/23 03:24:05;;;;;;;8.93;8.03;;;10.30;99.90;;;;;;5021289;28;20512;-78
2022/09/23 03:26:35;;;;;;;9.20;8.30;;;10.30;99.90;;;;;;5012700;28;20201;-78
2022/09/23 03:29:05;;;;;;;9.40;8.40;;;10.30;99.90;;;;;;5012480;28;20294;-78
2022/09/23 03:31:33;;;;;;;9.20;8.20;;;10.30;99.90;;;;;;5011883;28;20250;-78
2022/09/23 03:34:05;;;;;;;9.90;8.17;;;10.30;99.90;;;;;;5012642;28;20203;-77
2022/09/23 03:36:50;;;;;;;9.77;8.77;;;10.40;99.90;;;;;;5012204;28;20245;-77
2022/09/23 03:39:28;;;;;;;10.00;8.47;;;10.30;99.90;;;;;;5011911;28;20191;-76
2022/09/23 03:41:59;;;;;;;8.70;7.80;;;10.30;99.90;;;;;;5012915;28;20207;-77
2022/09/23 03:44:27;;;;;;;10.00;8.57;;;10.40;99.90;;;;;;5012474;28;20235;-77
2022/09/23 03:46:54;;;;;;;8.30;7.23;;;10.40;99.90;;;;;;5011872;28;20303;-77
2022/09/23 03:49:27;;;;;;;9.70;7.97;;;10.40;99.90;;;;;;5012611;28;20314;-76
2022/09/23 03:51:54;;;;;;;9.37;8.33;;;10.40;99.90;;;;;;5011898;28;20191;-77
2022/09/23 03:54:21;;;;;;;10.47;9.43;;;10.50;99.90;;;;;;5012557;28;20261;-77
2022/09/23 03:56:48;;;;;;;10.83;9.63;;;10.50;99.90;;;;;;5012498;28;20196;-76
2022/09/23 03:59:16;;;;;;;13.50;10.67;;;10.50;99.90;;;;;;5011342;28;20226;-77
2022/09/23 04:01:44;;;;;;;12.50;10.87;;;10.50;99.90;;;;;;5012082;28;20630;-76
2022/09/23 04:04:11;;;;;;;13.80;10.90;;;10.60;99.90;;;;;;5012061;28;20230;-77
2022/09/23 04:06:40;;;;;;;12.17;10.27;;;10.60;99.90;;;;;;5011571;28;20199;-77
2022/09/23 04:09:07;;;;;;;12.03;10.83;;;10.70;99.90;;;;;;5011883;28;20235;-77
2022/09/23 04:11:33;;;;;;;11.47;9.90;;;10.70;99.90;;;;;;5012016;28;20294;-77
2022/09/23 04:14:00;;;;;;;11.97;9.27;;;10.70;99.90;;;;;;5011583;28;20302;-77
2022/09/23 04:16:27;;;;;;;10.00;8.67;;;10.80;99.90;;;;;;5012206;28;20210;-77
2022/09/23 04:18:55;;;;;;;10.30;9.30;;;10.80;99.90;;;;;;5012286;28;20652;-77
2022/09/23 04:21:22;;;;;;;10.40;9.33;;;10.80;99.90;;;;;;5011410;28;20605;-77
2022/09/23 04:23:50;;;;;;;10.00;8.90;;;10.90;99.90;;;;;;5011961;28;20187;-77
2022/09/23 04:26:17;;;;;;;10.10;9.10;;;10.90;99.90;;;;;;5011796;28;20294;-78
2022/09/23 04:28:44;;;;;;;10.10;9.10;;;10.90;99.90;;;;;;5010975;28;20310;-78
2022/09/23 04:31:11;;;;;;;12.27;10.43;;;10.90;99.90;;;;;;5011786;28;20195;-78
2022/09/23 04:33:38;;;;;;;12.03;10.60;;;11.00;99.90;;;;;;5011353;28;20298;-78
2022/09/23 04:36:05;;;;;;;13.07;11.73;;;11.00;99.90;;;;;;5011242;28;20191;-78
2022/09/23 04:38:32;;;;;;;11.23;10.03;;;11.10;99.90;;;;;;5011807;28;20286;-78
2022/09/23 04:41:02;;;;;;;11.00;9.73;;;11.10;99.90;;;;;;5011368;28;20195;-78
2022/09/23 04:43:28;;;;;;;9.53;8.53;;;11.10;99.90;;;;;;5011173;28;20203;-77
2022/09/23 04:46:00;;;;;;;11.13;9.93;;;11.10;99.90;;;;;;5011843;28;20234;-78
2022/09/23 04:48:27;;;;;;;10.60;9.50;;;11.20;99.90;;;;;;5011245;28;20250;-78
2022/09/23 04:50:54;;;;;;;9.27;8.37;;;11.20;99.90;;;;;;5012051;28;20198;-78
2022/09/23 04:53:21;;;;;;;10.70;9.23;;;11.20;99.90;;;;;;5015604;28;20207;-78
2022/09/23 04:55:50;;;;;;;10.17;8.97;;;11.20;99.90;;;;;;5014448;28;20679;-78
2022/09/23 04:58:21;;;;;;;11.50;8.93;;;11.20;99.90;;;;;;5015803;28;20211;-78
2022/09/23 05:00:48;;;;;;;9.63;8.73;;;11.20;99.90;;;;;;5015411;28;20207;-78
2022/09/23 05:03:15;;;;;;;9.90;8.93;;;11.30;99.90;;;;;;5014415;28;20671;-77
2022/09/23 05:05:42;;;;;;;8.97;8.07;;;11.30;99.90;;;;;;5015451;28;20306;-77
2022/09/23 05:08:09;;;;;;;12.20;10.23;;;11.30;99.90;;;;;;5014795;28;20210;-77
2022/09/23 05:10:36;;;;;;;10.27;9.27;;;11.20;99.90;;;;;;5014203;28;20317;-77
2022/09/23 05:13:06;;;;;;;9.60;8.60;;;11.30;99.90;;;;;;5015548;28;20307;-77
2022/09/23 05:15:34;;;;;;;8.33;7.53;;;11.30;99.90;;;;;;5015197;28;20638;-77
2022/09/23 05:18:01;;;;;;;12.60;11.03;;;11.30;99.90;;;;;;5014691;28;20290;-77
2022/09/23 05:20:28;;;;;;;12.17;9.80;;;11.30;99.90;;;;;;5015433;28;20207;-76
2022/09/23 05:22:55;;;;;;;11.17;9.60;;;11.30;99.90;;;;;;5014689;28;20620;-77
2022/09/23 05:25:23;;;;;;;10.53;9.40;;;11.40;99.90;;;;;;5014324;28;20215;-78
2022/09/23 05:27:50;;;;;;;10.60;9.57;;;11.40;99.90;;;;;;5014608;28;20270;-76
2022/09/23 05:30:17;;;;;;;11.97;10.73;;;11.40;99.90;;;;;;5014208;28;20265;-76
2022/09/23 05:32:45;;;;;;;13.83;11.40;;;11.40;99.90;;;;;;5014107;28;20203;-77
2022/09/23 05:35:12;;;;;;;10.23;9.13;;;11.40;99.90;;;;;;5014648;28;20203;-76
2022/09/23 05:37:39;;;;;;;11.13;10.00;;;11.50;99.90;;;;;;5013994;28;20195;-76
2022/09/23 05:40:06;;;;;;;9.60;8.70;;;11.50;99.90;;;;;;5014702;28;20294;-76
2022/09/23 05:42:33;;;;;;;15.07;11.03;;;11.50;99.90;;;;;;5014410;28;20290;-76
2022/09/23 05:45:00;;;;;;;10.80;9.60;;;11.60;99.90;;;;;;5013994;28;20310;-76
2022/09/23 05:47:27;;;;;;;12.17;10.97;;;11.60;99.90;;;;;;5014551;28;20203;-77
2022/09/23 05:49:55;;;;;;;11.07;9.53;;;11.60;99.90;;;;;;5014270;28;20202;-78
2022/09/23 05:52:24;;;;;;;12.60;10.60;;;11.70;99.90;;;;;;5013678;28;20291;-78
2022/09/23 05:54:51;;;;;;;9.33;8.37;;;11.70;99.90;;;;;;5014229;28;20195;-78
2022/09/23 05:57:18;;;;;;;13.20;10.33;;;11.70;99.90;;;;;;5014204;28;20513;-77
2022/09/23 05:59:46;;;;;;;12.57;11.27;;;11.70;99.90;;;;;;5013403;28;20314;-78
2022/09/23 06:02:14;;;;;;;10.67;9.57;;;11.70;99.90;;;;;;5013838;28;20207;-77
2022/09/23 06:04:41;;;;;;;11.17;10.17;;;11.80;99.90;;;;;;5013896;28;20227;-77
2022/09/23 06:07:10;;;;;;;11.30;10.10;;;11.80;99.90;;;;;;5013037;28;20311;-78
2022/09/23 06:09:37;;;;;;;11.47;10.27;;;11.80;99.90;;;;;;5013704;28;20257;-77
2022/09/23 06:12:05;;;;;;;13.80;11.23;;;11.80;99.90;;;;;;5030526;28;20234;-76
2022/09/23 06:14:32;;;;;;;14.40;11.33;;;11.90;99.90;;;;;;5028551;28;20207;-78
2022/09/23 06:16:59;;;;;;;11.80;10.60;;;11.90;99.90;;;;;;5033121;28;20207;-78
2022/09/23 06:19:25;;;;;;;9.90;8.73;;;11.90;99.90;;;;;;5030488;28;20245;-78
2022/09/23 06:21:52;;;;;;;11.97;10.70;;;11.90;99.90;;;;;;5033394;28;20209;-78
2022/09/23 06:24:20;;;;;;;12.27;10.30;;;11.90;99.90;;;;;;5033310;28;20206;-78
2022/09/23 06:26:48;;;;;;;11.67;10.37;;;11.90;99.90;;;;;;5027609;28;20203;-78
2022/09/23 06:29:15;;;;;;;14.80;11.93;;;11.90;99.90;;;;;;5013732;28;20217;-78
2022/09/23 06:31:42;;;;;;;14.27;12.80;;;11.90;99.90;;;;;;5013273;28;20204;-78
2022/09/23 06:34:10;;;;;;;16.57;13.83;;;12.00;99.90;;;;;;5012526;28;20213;-78
2022/09/23 06:36:37;;;;;;;16.53;13.57;;;12.00;99.90;;;;;;5013655;28;20195;-77
2022/09/23 06:39:05;;;;;;;13.83;12.37;;;12.00;99.90;;;;;;5013094;28;20283;-78
2022/09/23 06:41:33;;;;;;;14.03;12.53;;;12.00;99.90;;;;;;5012837;28;20203;-78
2022/09/23 06:44:00;;;;;;;16.87;13.33;;;12.00;99.90;;;;;;5012545;28;20596;-78
2022/09/23 06:46:27;;;;;;;15.40;12.53;;;12.00;99.90;;;;;;5012558;28;20237;-77
2022/09/23 06:48:53;;;;;;;14.63;13.10;;;12.00;99.90;;;;;;5015456;28;20187;-77
2022/09/23 06:51:20;;;;;;;17.53;13.90;;;12.00;99.90;;;;;;5026178;28;20516;-77
2022/09/23 06:53:48;;;;;;;14.27;12.73;;;12.10;99.90;;;;;;5013294;28;20536;-78
2022/09/23 06:56:16;;;;;;;15.83;14.13;;;12.10;99.90;;;;;;5011562;28;20289;-77
2022/09/23 06:58:45;;;;;;;14.73;13.27;;;12.10;99.90;;;;;;5011866;28;20740;-78
2022/09/23 07:01:14;;;;;;;14.43;12.93;;;12.10;99.90;;;;;;5013604;28;20219;-77
2022/09/23 07:03:41;;;;;;;13.90;12.43;;;12.10;99.90;;;;;;5012055;28;20197;-78
2022/09/23 07:06:08;;;;;;;16.73;13.83;;;12.10;99.90;;;;;;5012389;28;20315;-78
2022/09/23 07:08:36;;;;;;;14.20;12.77;;;12.10;99.90;;;;;;5010270;28;20210;-79
2022/09/23 07:11:05;;;;;;;16.20;13.07;;;12.10;99.90;;;;;;5011839;28;20874;-79
2022/09/23 07:13:33;;;;;;;18.53;14.90;;;12.10;99.90;;;;;;5011242;28;20287;-78
2022/09/23 07:16:02;;;;;;;23.33;15.17;;;12.10;99.90;;;;;;5011296;28;20542;-78
2022/09/23 07:18:31;;;;;;;17.33;15.07;;;12.10;99.90;;;;;;5019903;28;20304;-79
2022/09/23 07:21:06;;;;;;;16.40;13.87;;;12.20;99.90;;;;;;5010804;28;20604;-77
2022/09/23 07:23:33;;;;;;;16.67;13.87;;;12.20;99.90;;;;;;5035586;28;20205;-78
2022/09/23 07:26:00;;;;;;;16.93;15.23;;;12.20;99.90;;;;;;5045872;28;20221;-79
2022/09/23 07:28:28;;;;;;;12.93;11.27;;;12.20;99.90;;;;;;5040608;28;20262;-78
2022/09/23 07:30:55;;;;;;;15.87;14.27;;;12.20;99.90;;;;;;5047089;28;20209;-79
2022/09/23 07:33:23;;;;;;;15.23;13.63;;;12.30;99.90;;;;;;5041922;28;20268;-80
2022/09/23 07:35:50;;;;;;;19.67;15.10;;;12.30;99.90;;;;;;5038758;28;20196;-79
2022/09/23 07:38:17;;;;;;;21.23;17.00;;;12.30;99.90;;;;;;5048076;28;20716;-79
2022/09/23 07:40:44;;;;;;;21.53;17.27;;;12.40;99.90;;;;;;5049095;28;20831;-81
2022/09/23 07:43:12;;;;;;;16.77;14.97;;;12.40;99.90;;;;;;5012458;28;20257;-81
2022/09/23 07:45:42;;;;;;;18.57;14.83;;;12.40;99.90;;;;;;5012023;28;20227;-80
2022/09/23 07:48:10;;;;;;;16.63;14.30;;;12.40;99.90;;;;;;5012949;28;20211;-81
2022/09/23 07:50:40;;;;;;;13.63;12.33;;;12.50;99.90;;;;;;5012259;28;20206;-80
2022/09/23 07:53:07;;;;;;;15.77;13.87;;;12.50;99.90;;;;;;5012988;28;20290;-80
2022/09/23 07:55:35;;;;;;;14.83;13.23;;;12.50;99.90;;;;;;5011625;28;20196;-80
2022/09/23 07:58:02;;;;;;;18.47;15.67;;;12.50;99.90;;;;;;5012329;28;20202;-80
2022/09/23 08:00:29;;;;;;;14.60;12.97;;;12.60;99.90;;;;;;5012538;28;20432;-80
2022/09/23 08:02:56;;;;;;;16.53;14.83;;;12.60;99.90;;;;;;5012292;28;20281;-80
2022/09/23 08:05:23;;;;;;;17.93;16.03;;;12.60;99.90;;;;;;5011420;28;20221;-79
2022/09/23 08:07:51;;;;;;;17.70;13.53;;;12.60;99.90;;;;;;5012420;28;20200;-80
2022/09/23 08:10:19;;;;;;;17.97;15.77;;;12.60;99.90;;;;;;5013993;28;20325;-80
2022/09/23 08:12:47;;;;;;;17.17;15.20;;;12.60;99.90;;;;;;5031747;28;20214;-80
2022/09/23 08:15:15;;;;;;;17.10;14.90;;;12.60;99.90;;;;;;5032131;28;20193;-80
2022/09/23 08:17:42;;;;;;;14.07;12.67;;;12.60;99.90;;;;;;5032191;28;20206;-80
2022/09/23 08:20:42;;;;;;;17.17;15.37;;;12.60;99.90;;;;;;5030390;28;20202;-80
2022/09/23 08:22:58;;;;;;;20.93;16.33;;;12.60;99.90;;;;;;5031959;28;20203;-80
2022/09/23 08:25:24;;;;;;;17.23;15.50;;;12.70;99.90;;;;;;5033762;28;20229;-81
2022/09/23 08:27:51;;;;;;;15.90;14.23;;;12.70;99.90;;;;;;5036088;28;20737;-82
2022/09/23 08:30:18;;;;;;;16.93;15.23;;;12.70;99.90;;;;;;5025997;28;20218;-81
2022/09/23 08:32:45;;;;;;;17.47;15.70;;;12.70;99.90;;;;;;5016767;28;20510;-81
2022/09/23 08:35:12;;;;;;;14.90;13.27;;;12.70;99.90;;;;;;5015654;28;20226;-81
2022/09/23 08:37:39;;;;;;;15.30;13.70;;;12.80;99.90;;;;;;5016381;28;20278;-80
2022/09/23 08:40:08;;;;;;;21.83;19.37;;;12.80;99.90;;;;;;5015688;28;20195;-80
2022/09/23 08:42:39;;;;;;;23.63;20.10;;;12.90;99.90;;;;;;5016383;28;20195;-79
2022/09/23 08:45:12;;;;;;;21.53;18.53;;;12.90;99.90;;;;;;5015568;28;20607;-79
2022/09/23 08:47:45;;;;;;;20.37;17.77;;;12.90;99.90;;;;;;5015533;28;20191;-79
2022/09/23 08:50:17;;;;;;;22.50;19.17;;;12.90;99.90;;;;;;5031567;28;20214;-81
2022/09/23 08:52:51;;;;;;;21.10;17.87;;;13.00;99.90;;;;;;5034827;28;20834;-81
2022/09/23 08:55:22;;;;;;;17.63;14.60;;;13.00;99.90;;;;;;5015940;28;20190;-77
2022/09/23 08:58:20;;;;;;;22.87;18.50;;;13.10;99.90;;;;;;5022681;28;20972;-78
2022/09/23 09:00:55;;;;;;;23.13;19.50;;;13.20;99.90;;;;;;5035311;28;20187;-78
2022/09/23 09:03:26;;;;;;;19.63;17.23;;;13.20;99.90;;;;;;5034782;28;20198;-77
2022/09/23 09:05:55;;;;;;;20.37;16.70;;;13.30;99.90;;;;;;5034497;28;20223;-77
2022/09/23 09:08:26;;;;;;;20.53;17.33;;;13.40;99.90;;;;;;5022608;28;20591;-79
2022/09/23 09:10:57;;;;;;;23.80;18.67;;;13.50;99.90;;;;;;5022722;28;20600;-81
2022/09/23 09:13:31;;;;;;;17.87;14.77;;;13.50;99.90;;;;;;5035834;28;20249;-81
2022/09/23 09:16:15;;;;;;;20.60;18.27;;;13.60;99.90;;;;;;5035021;28;20240;-81
2022/09/23 09:18:50;;;;;;;15.37;13.37;;;13.60;99.90;;;;;;5021556;28;20207;-82
2022/09/23 09:21:17;;;;;;;18.10;16.20;;;13.60;99.90;;;;;;5015669;28;20584;-80
2022/09/23 09:23:53;;;;;;;16.27;14.07;;;13.70;99.90;;;;;;5024609;28;20473;-82
2022/09/23 09:26:24;;;;;;;17.60;14.57;;;13.70;99.90;;;;;;5031416;28;20238;-81
2022/09/23 09:28:57;;;;;;;17.47;15.67;;;13.70;99.90;;;;;;5033239;28;20230;-80
2022/09/23 09:31:38;;;;;;;17.40;15.53;;;13.70;99.90;;;;;;5031203;28;20211;-81
2022/09/23 09:34:10;;;;;;;19.17;15.70;;;13.70;99.90;;;;;;5033167;28;20210;-82
2022/09/23 09:36:45;;;;;;;14.23;12.80;;;13.70;99.90;;;;;;5030445;28;20217;-81
2022/09/23 09:39:14;;;;;;;13.57;12.00;;;13.70;99.90;;;;;;5032541;28;20556;-80
2022/09/23 09:41:47;;;;;;;14.70;13.13;;;13.70;99.90;;;;;;5032467;28;20210;-82
2022/09/23 09:44:24;;;;;;;19.33;16.83;;;13.70;99.90;;;;;;5031727;28;20301;-82
2022/09/23 09:47:07;;;;;;;14.87;12.87;;;13.70;99.90;;;;;;5026479;28;20218;-83
2022/09/23 09:49:41;;;;;;;13.17;11.87;;;13.70;99.90;;;;;;5019728;28;20211;-81
2022/09/23 09:52:22;;;;;;;13.73;12.33;;;13.70;99.90;;;;;;5014875;28;20513;-81
2022/09/23 09:54:50;;;;;;;12.67;11.37;;;13.80;99.90;;;;;;5012832;28;20663;-80
2022/09/23 09:57:30;;;;;;;14.70;13.20;;;13.80;99.90;;;;;;5013675;28;20529;-83
2022/09/23 09:59:57;;;;;;;14.33;12.83;;;13.80;99.90;;;;;;5014098;28;20246;-82
2022/09/23 10:02:30;;;;;;;13.87;12.40;;;13.90;99.90;;;;;;5013804;28;20215;-81
2022/09/23 10:05:00;;;;;;;16.40;14.63;;;13.90;99.90;;;;;;5012962;28;20254;-81
2022/09/23 10:07:29;;;;;;;13.77;12.37;;;13.90;99.90;;;;;;5013215;28;20677;-81
2022/09/23 10:09:57;;;;;;;14.67;13.20;;;13.90;99.90;;;;;;5015395;28;20652;-82
2022/09/23 10:12:26;;;;;;;13.57;12.10;;;13.90;99.90;;;;;;5030779;28;20615;-81
2022/09/23 10:14:56;;;;;;;16.97;14.50;;;14.00;99.90;;;;;;5013759;28;20716;-81
2022/09/23 10:17:27;;;;;;;18.90;16.67;;;14.00;99.90;;;;;;5025531;28;20742;-82
2022/09/23 10:19:59;;;;;;;19.07;16.33;;;14.00;99.90;;;;;;5027710;28;20209;-80
2022/09/23 10:22:31;;;;;;;15.90;14.27;;;14.00;99.90;;;;;;5031447;28;20499;-78
2022/09/23 10:25:03;;;;;;;16.43;14.17;;;14.00;99.90;;;;;;5021354;28;20206;-81
2022/09/23 10:27:36;;;;;;;15.20;13.60;;;14.00;99.90;;;;;;5021221;28;20312;-82
2022/09/23 10:30:05;;;;;;;18.67;16.20;;;14.00;99.90;;;;;;5018747;28;20214;-79
2022/09/23 10:32:36;;;;;;;18.53;16.53;;;14.00;99.90;;;;;;5030017;28;20302;-81
2022/09/23 10:35:13;;;;;;;20.50;18.40;;;14.10;99.90;;;;;;5030750;28;20242;-81
2022/09/23 10:37:42;;;;;;;22.73;18.67;;;14.10;99.90;;;;;;5030354;28;20194;-78
2022/09/23 10:49:04;;;;;;;26.67;21.03;;;14.30;99.90;;;;;;5011464;28;20225;-80
2022/09/23 10:51:40;;;;;;;24.23;21.07;;;14.40;99.90;;;;;;5012899;28;20199;-80
2022/09/23 10:54:17;;;;;;;24.13;20.23;;;14.40;99.90;;;;;;5011865;28;20201;-80
2022/09/23 10:56:48;;;;;;;25.67;22.23;;;14.50;99.90;;;;;;5012863;28;20187;-80
2022/09/23 10:59:54;;;;;;;23.43;20.87;;;14.60;99.90;;;;;;5012553;28;20294;-80
2022/09/23 11:02:43;;;;;;;22.87;19.83;;;14.60;99.90;;;;;;4970455;28;20204;-79
2022/09/23 11:05:31;;;;;;;25.60;20.87;;;14.70;99.90;;;;;;5011676;28;20210;-79
2022/09/23 11:08:09;;;;;;;16.73;14.90;;;14.70;99.90;;;;;;5011561;28;20241;-80
2022/09/23 11:11:18;;;;;;;23.53;20.90;;;14.80;99.90;;;;;;5012179;28;20245;-79
2022/09/23 11:14:03;;;;;;;23.97;18.63;;;14.80;99.90;;;;;;5011999;28;20195;-77
2022/09/23 11:16:44;;;;;;;21.47;18.90;;;14.80;99.90;;;;;;5012177;28;20191;-79
2022/09/23 11:19:35;;;;;;;19.43;16.50;;;14.90;99.90;;;;;;5012531;28;20487;-79
2022/09/23 11:22:22;;;;;;;19.60;17.00;;;15.00;99.90;;;;;;5011828;28;20199;-79
2022/09/23 11:25:05;;;;;;;17.10;15.30;;;15.00;99.90;;;;;;5011691;28;20226;-79
2022/09/23 11:27:47;;;;;;;14.57;13.00;;;15.10;99.90;;;;;;5011737;28;20659;-78
2022/09/23 11:30:18;;;;;;;17.77;15.60;;;15.20;99.90;;;;;;5011711;28;20196;-80
2022/09/23 11:33:12;;;;;;;17.67;14.83;;;15.20;99.90;;;;;;5011951;28;20261;-80
2022/09/23 11:35:46;;;;;;;19.80;16.95;;;15.30;99.90;;;;;;5010430;28;20206;-79
2022/09/23 11:38:20;;;;;;;17.07;14.80;;;15.30;99.90;;;;;;5015185;28;20529;-78
2022/09/23 11:40:53;;;;;;;20.83;17.67;;;15.40;99.90;;;;;;5010858;28;20211;-77
2022/09/23 11:43:23;;;;;;;20.20;16.03;;;15.50;99.90;;;;;;5010995;28;20215;-79
2022/09/23 11:45:57;;;;;;;22.67;17.55;;;15.50;99.90;;;;;;5010780;28;20488;-80
2022/09/23 11:48:32;;;;;;;22.37;15.40;;;15.60;99.90;;;;;;5011137;28;20262;-79
2022/09/23 11:51:04;;;;;;;14.85;13.05;;;15.70;99.90;;;;;;5014293;28;20210;-79
2022/09/23 11:53:41;;;;;;;19.13;16.52;;;15.80;99.90;;;;;;5031022;28;20314;-79
2022/09/23 11:56:15;;;;;;;20.80;16.63;;;15.90;99.90;;;;;;5026766;28;20226;-78
2022/09/23 11:58:47;;;;;;;19.15;15.60;;;15.90;99.90;;;;;;5018144;28;20297;-78
2022/09/23 12:01:23;;;;;;;22.30;18.60;;;16.00;99.90;;;;;;5010811;28;20238;-78
2022/09/23 12:03:58;;;;;;;19.25;14.02;;;16.10;99.90;;;;;;5010755;28;20219;-78
2022/09/23 12:06:33;;;;;;;17.75;14.40;;;16.20;99.90;;;;;;5011041;28;20261;-77
2022/09/23 12:09:03;;;;;;;15.82;13.80;;;16.30;99.90;;;;;;5010765;28;20283;-79
2022/09/23 12:11:37;;;;;;;18.25;14.30;;;16.40;99.90;;;;;;5014235;28;20288;-78
2022/09/23 12:14:16;;;;;;;17.48;14.52;;;16.40;99.90;;;;;;5015653;28;20222;-79
2022/09/23 12:17:25;;;;;;;17.35;15.63;;;16.50;99.90;;;;;;5010192;28;20230;-78
2022/09/23 12:20:27;;;;;;;16.38;13.93;;;16.60;99.90;;;;;;4964781;28;20207;-78
2022/09/23 12:23:06;;;;;;;18.27;13.80;;;16.70;99.90;;;;;;5028026;28;20602;-76
2022/09/23 12:25:45;;;;;;;17.92;13.75;;;16.90;99.90;;;;;;5028723;28;20293;-78
2022/09/23 12:28:17;;;;;;;16.33;13.52;;;17.00;99.90;;;;;;5027389;28;20292;-77
2022/09/23 12:30:45;;;;;;;15.43;11.98;;;17.10;99.90;;;;;;5029791;28;20210;-78
2022/09/23 12:33:23;;;;;;;13.38;11.70;;;17.20;99.90;;;;;;5030099;28;20289;-77
2022/09/23 12:35:54;;;;;;;9.80;8.73;;;17.30;99.90;;;;;;5028406;28;20217;-78
2022/09/23 12:38:25;;;;;;;9.35;8.45;;;17.40;99.90;;;;;;5028477;28;20281;-77
2022/09/23 12:40:54;;;;;;;17.05;12.68;;;17.50;99.90;;;;;;5029197;28;20513;-78
2022/09/23 12:43:29;;;;;;;14.65;13.07;;;17.50;99.90;;;;;;5028584;28;20211;-79
2022/09/23 12:46:17;;;;;;;12.93;11.55;;;17.60;99.90;;;;;;5018612;28;20224;-79
2022/09/23 12:48:46;;;;;;;10.18;8.98;;;17.70;99.90;;;;;;5029428;28;20214;-78
2022/09/23 12:51:21;;;;;;;10.13;9.13;;;17.70;99.90;;;;;;5025473;28;20207;-78
2022/09/23 12:53:59;;;;;;;8.43;6.85;;;17.70;99.90;;;;;;5014371;28;20213;-77
2022/09/23 12:56:48;;;;;;;7.82;6.32;;;17.70;99.90;;;;;;5029966;28;20575;-78
2022/09/23 12:59:26;;;;;;;5.85;5.22;;;17.70;99.90;;;;;;5020383;28;20219;-78
2022/09/23 13:01:53;;;;;;;6.28;4.68;;;17.70;99.90;;;;;;5024772;28;20626;-78
2022/09/23 13:07:18;;;;;;;6.00;4.20;;;17.50;99.90;;;;;;5023160;28;20251;-77